sensor_id;sensor_type;location;lat;lon;timestamp;temperature;humidity
60293;DHT22;52402;52.670;6.750;2023-09-30T00:00:46;11.40;99.90
60293;DHT22;52402;52.670;6.750;2023-09-30T00:03:12;11.40;99.90
60293;DHT22;52402;52.670;6.750;2023-09-30T00:05:38;11.40;99.90
60293;DHT22;52402;52.670;6.750;2023-09-30T00:08:04;11.40;99.90
60293;DHT22;52402;52.670;6.750;2023-09-30T00:10:30;11.40;99.90
60293;DHT22;52402;52.670;6.750;2023-09-30T00:12:56;11.40;99.90
60293;DHT22;52402;52.670;6.750;2023-09-30T00:15:22;11.40;99.90
60293;DHT22;52402;52.670;6.750;2023-09-30T00:17:48;11.40;99.90
60293;DHT22;52402;52.670;6.750;2023-09-30T00:20:13;11.40;99.90
60293;DHT22;52402;52.670;6.750;2023-09-30T00:22:41;11.30;99.90
60293;DHT22;52402;52.670;6.750;2023-09-30T00:25:09;11.30;99.90
60293;DHT22;52402;52.670;6.750;2023-09-30T00:27:35;11.30;99.90
60293;DHT22;52402;52.670;6.750;2023-09-30T00:30:01;11.30;99.90
60293;DHT22;52402;52.670;6.750;2023-09-30T00:32:28;11.30;99.90
60293;DHT22;52402;52.670;6.750;2023-09-30T00:34:54;11.30;99.90
60293;DHT22;52402;52.670;6.750;2023-09-30T00:37:19;11.30;99.90
60293;DHT22;52402;52.670;6.750;2023-09-30T00:39:45;11.30;99.90
60293;DHT22;52402;52.670;6.750;2023-09-30T00:42:11;11.30;99.90
60293;DHT22;52402;52.670;6.750;2023-09-30T00:44:37;11.30;99.90
60293;DHT22;52402;52.670;6.750;2023-09-30T00:47:02;11.30;99.90
60293;DHT22;52402;52.670;6.750;2023-09-30T00:49:29;11.30;99.90
60293;DHT22;52402;52.670;6.750;2023-09-30T00:51:56;11.30;99.90
60293;DHT22;52402;52.670;6.750;2023-09-30T00:54:24;11.30;99.90
60293;DHT22;52402;52.670;6.750;2023-09-30T00:56:52;11.30;99.90
60293;DHT22;52402;52.670;6.750;2023-09-30T00:59:21;11.30;99.90
60293;DHT22;52402;52.670;6.750;2023-09-30T01:01:46;11.40;99.90
60293;DHT22;52402;52.670;6.750;2023-09-30T01:04:12;11.40;99.90
60293;DHT22;52402;52.670;6.750;2023-09-30T01:06:38;11.30;99.90
60293;DHT22;52402;52.670;6.750;2023-09-30T01:09:04;11.40;99.90
60293;DHT22;52402;52.670;6.750;2023-09-30T01:11:30;11.40;99.90
60293;DHT22;52402;52.670;6.750;2023-09-30T01:13:56;11.40;99.90
60293;DHT22;52402;52.670;6.750;2023-09-30T01:16:23;11.40;99.90
60293;DHT22;52402;52.670;6.750;2023-09-30T01:18:49;11.40;99.90
60293;DHT22;52402;52.670;6.750;2023-09-30T01:21:14;11.40;99.90
60293;DHT22;52402;52.670;6.750;2023-09-30T01:23:40;11.40;99.90
60293;DHT22;52402;52.670;6.750;2023-09-30T01:26:11;11.40;99.90
60293;DHT22;52402;52.670;6.750;2023-09-30T01:28:38;11.40;99.90
60293;DHT22;52402;52.670;6.750;2023-09-30T01:31:04;11.40;99.90
60293;DHT22;52402;52.670;6.750;2023-09-30T01:33:31;11.40;99.90
60293;DHT22;52402;52.670;6.750;2023-09-30T01:35:58;11.40;99.90
60293;DHT22;52402;52.670;6.750;2023-09-30T01:38:23;11.40;99.90
60293;DHT22;52402;52.670;6.750;2023-09-30T01:40:49;11.40;99.90
60293;DHT22;52402;52.670;6.750;2023-09-30T01:43:15;11.40;99.90
60293;DHT22;52402;52.670;6.750;2023-09-30T01:45:41;11.40;99.90
60293;DHT22;52402;52.670;6.750;2023-09-30T01:48:07;11.40;99.90
60293;DHT22;52402;52.670;6.750;2023-09-30T01:50:32;11.40;99.90
60293;DHT22;52402;52.670;6.750;2023-09-30T01:52:58;11.40;99.90
60293;DHT22;52402;52.670;6.750;2023-09-30T01:55:24;11.40;99.90
60293;DHT22;52402;52.670;6.750;2023-09-30T01:57:49;11.40;99.90
60293;DHT22;52402;52.670;6.750;2023-09-30T02:00:15;11.40;99.90
60293;DHT22;52402;52.670;6.750;2023-09-30T02:02:42;11.40;99.90
60293;DHT22;52402;52.670;6.750;2023-09-30T02:05:08;11.30;99.90
60293;DHT22;52402;52.670;6.750;2023-09-30T02:07:34;11.30;99.90
60293;DHT22;52402;52.670;6.750;2023-09-30T02:10:00;11.30;99.90
60293;DHT22;52402;52.670;6.750;2023-09-30T02:12:27;11.30;99.90
60293;DHT22;52402;52.670;6.750;2023-09-30T02:14:54;11.30;99.90
60293;DHT22;52402;52.670;6.750;2023-09-30T02:17:19;11.30;99.90
60293;DHT22;52402;52.670;6.750;2023-09-30T02:19:45;11.30;99.90
60293;DHT22;52402;52.670;6.750;2023-09-30T02:22:11;11.30;99.90
60293;DHT22;52402;52.670;6.750;2023-09-30T02:24:37;11.30;99.90
60293;DHT22;52402;52.670;6.750;2023-09-30T02:27:05;11.30;99.90
60293;DHT22;52402;52.670;6.750;2023-09-30T02:29:31;11.20;99.90
60293;DHT22;52402;52.670;6.750;2023-09-30T02:31:57;11.20;99.90
60293;DHT22;52402;52.670;6.750;2023-09-30T02:34:23;11.20;99.90
60293;DHT22;52402;52.670;6.750;2023-09-30T02:36:49;11.20;99.90
60293;DHT22;52402;52.670;6.750;2023-09-30T02:39:15;11.20;99.90
60293;DHT22;52402;52.670;6.750;2023-09-30T02:41:42;11.20;99.90
60293;DHT22;52402;52.670;6.750;2023-09-30T02:44:08;11.20;99.90
60293;DHT22;52402;52.670;6.750;2023-09-30T02:46:34;11.20;99.90
60293;DHT22;52402;52.670;6.750;2023-09-30T02:49:01;11.10;99.90
60293;DHT22;52402;52.670;6.750;2023-09-30T02:51:27;11.10;99.90
60293;DHT22;52402;52.670;6.750;2023-09-30T02:53:53;11.20;99.90
60293;DHT22;52402;52.670;6.750;2023-09-30T02:56:19;11.20;99.90
60293;DHT22;52402;52.670;6.750;2023-09-30T02:58:46;11.20;99.90
60293;DHT22;52402;52.670;6.750;2023-09-30T03:01:15;11.10;99.90
60293;DHT22;52402;52.670;6.750;2023-09-30T03:03:42;11.20;99.90
60293;DHT22;52402;52.670;6.750;2023-09-30T03:06:10;11.20;99.90
60293;DHT22;52402;52.670;6.750;2023-09-30T03:08:36;11.20;99.90
60293;DHT22;52402;52.670;6.750;2023-09-30T03:11:02;11.20;99.90
60293;DHT22;52402;52.670;6.750;2023-09-30T03:13:29;11.10;99.90
60293;DHT22;52402;52.670;6.750;2023-09-30T03:15:54;11.20;99.90
60293;DHT22;52402;52.670;6.750;2023-09-30T03:18:22;11.10;99.90
60293;DHT22;52402;52.670;6.750;2023-09-30T03:20:57;11.10;99.90
60293;DHT22;52402;52.670;6.750;2023-09-30T03:23:28;11.10;99.90
60293;DHT22;52402;52.670;6.750;2023-09-30T03:25:57;11.10;99.90
60293;DHT22;52402;52.670;6.750;2023-09-30T03:28:23;11.10;99.90
60293;DHT22;52402;52.670;6.750;2023-09-30T03:30:48;11.10;99.90
60293;DHT22;52402;52.670;6.750;2023-09-30T03:33:14;11.10;99.90
60293;DHT22;52402;52.670;6.750;2023-09-30T03:35:39;11.00;99.90
60293;DHT22;52402;52.670;6.750;2023-09-30T03:38:07;11.00;99.90
60293;DHT22;52402;52.670;6.750;2023-09-30T03:40:34;11.00;99.90
60293;DHT22;52402;52.670;6.750;2023-09-30T03:43:04;11.00;99.90
60293;DHT22;52402;52.670;6.750;2023-09-30T03:45:31;11.00;99.90
60293;DHT22;52402;52.670;6.750;2023-09-30T03:48:01;10.90;99.90
60293;DHT22;52402;52.670;6.750;2023-09-30T03:50:28;10.90;99.90
60293;DHT22;52402;52.670;6.750;2023-09-30T03:53:04;10.90;99.90
60293;DHT22;52402;52.670;6.750;2023-09-30T03:55:33;10.80;99.90
60293;DHT22;52402;52.670;6.750;2023-09-30T03:57:59;10.80;99.90
60293;DHT22;52402;52.670;6.750;2023-09-30T04:00:25;10.80;99.90
60293;DHT22;52402;52.670;6.750;2023-09-30T04:02:51;10.80;99.90
60293;DHT22;52402;52.670;6.750;2023-09-30T04:05:23;10.80;99.90
60293;DHT22;52402;52.670;6.750;2023-09-30T04:07:57;10.80;99.90
60293;DHT22;52402;52.670;6.750;2023-09-30T04:10:23;10.80;99.90
60293;DHT22;52402;52.670;6.750;2023-09-30T04:12:48;10.90;99.90
60293;DHT22;52402;52.670;6.750;2023-09-30T04:15:14;10.80;99.90
60293;DHT22;52402;52.670;6.750;2023-09-30T04:17:41;10.80;99.90
60293;DHT22;52402;52.670;6.750;2023-09-30T04:20:08;10.90;99.90
60293;DHT22;52402;52.670;6.750;2023-09-30T04:22:36;10.90;99.90
60293;DHT22;52402;52.670;6.750;2023-09-30T04:25:02;10.90;99.90
60293;DHT22;52402;52.670;6.750;2023-09-30T04:27:33;10.90;99.90
60293;DHT22;52402;52.670;6.750;2023-09-30T04:29:59;10.90;99.90
60293;DHT22;52402;52.670;6.750;2023-09-30T04:32:25;10.90;99.90
60293;DHT22;52402;52.670;6.750;2023-09-30T04:34:53;10.90;99.90
60293;DHT22;52402;52.670;6.750;2023-09-30T04:37:18;11.00;99.90
60293;DHT22;52402;52.670;6.750;2023-09-30T04:39:44;11.00;99.90
60293;DHT22;52402;52.670;6.750;2023-09-30T04:42:10;11.00;99.90
60293;DHT22;52402;52.670;6.750;2023-09-30T04:44:38;11.00;99.90
60293;DHT22;52402;52.670;6.750;2023-09-30T04:47:04;11.00;99.90
60293;DHT22;52402;52.670;6.750;2023-09-30T04:49:30;11.00;99.90
60293;DHT22;52402;52.670;6.750;2023-09-30T04:51:56;11.00;99.90
60293;DHT22;52402;52.670;6.750;2023-09-30T04:54:22;11.10;99.90
60293;DHT22;52402;52.670;6.750;2023-09-30T04:56:47;11.10;99.90
60293;DHT22;52402;52.670;6.750;2023-09-30T04:59:13;11.10;99.90
60293;DHT22;52402;52.670;6.750;2023-09-30T05:01:39;11.10;99.90
60293;DHT22;52402;52.670;6.750;2023-09-30T05:04:05;11.10;99.90
60293;DHT22;52402;52.670;6.750;2023-09-30T05:06:31;11.10;99.90
60293;DHT22;52402;52.670;6.750;2023-09-30T05:08:58;11.00;99.90
60293;DHT22;52402;52.670;6.750;2023-09-30T05:11:24;11.10;99.90
60293;DHT22;52402;52.670;6.750;2023-09-30T05:13:50;11.10;99.90
60293;DHT22;52402;52.670;6.750;2023-09-30T05:16:17;11.00;99.90
60293;DHT22;52402;52.670;6.750;2023-09-30T05:18:43;11.00;99.90
60293;DHT22;52402;52.670;6.750;2023-09-30T05:21:09;11.00;99.90
60293;DHT22;52402;52.670;6.750;2023-09-30T05:23:36;11.00;99.90
60293;DHT22;52402;52.670;6.750;2023-09-30T05:26:02;10.90;99.90
60293;DHT22;52402;52.670;6.750;2023-09-30T05:28:28;10.90;99.90
60293;DHT22;52402;52.670;6.750;2023-09-30T05:30:53;10.90;99.90
60293;DHT22;52402;52.670;6.750;2023-09-30T05:33:19;10.80;99.90
60293;DHT22;52402;52.670;6.750;2023-09-30T05:35:45;10.90;99.90
60293;DHT22;52402;52.670;6.750;2023-09-30T05:38:11;10.80;99.90
60293;DHT22;52402;52.670;6.750;2023-09-30T05:40:38;10.80;99.90
60293;DHT22;52402;52.670;6.750;2023-09-30T05:43:04;10.80;99.90
60293;DHT22;52402;52.670;6.750;2023-09-30T05:45:32;10.80;99.90
60293;DHT22;52402;52.670;6.750;2023-09-30T05:48:03;10.80;99.90
60293;DHT22;52402;52.670;6.750;2023-09-30T05:50:35;10.70;99.90
60293;DHT22;52402;52.670;6.750;2023-09-30T05:53:02;10.70;99.90
60293;DHT22;52402;52.670;6.750;2023-09-30T05:55:27;10.70;99.90
60293;DHT22;52402;52.670;6.750;2023-09-30T05:57:53;10.70;99.90
60293;DHT22;52402;52.670;6.750;2023-09-30T06:00:19;10.70;99.90
60293;DHT22;52402;52.670;6.750;2023-09-30T06:02:49;10.70;99.90
60293;DHT22;52402;52.670;6.750;2023-09-30T06:05:17;10.70;99.90
60293;DHT22;52402;52.670;6.750;2023-09-30T06:07:45;10.80;99.90
60293;DHT22;52402;52.670;6.750;2023-09-30T06:10:11;10.80;99.90
60293;DHT22;52402;52.670;6.750;2023-09-30T06:12:37;10.80;99.90
60293;DHT22;52402;52.670;6.750;2023-09-30T06:15:03;10.80;99.90
60293;DHT22;52402;52.670;6.750;2023-09-30T06:17:28;10.80;99.90
60293;DHT22;52402;52.670;6.750;2023-09-30T06:19:54;10.90;99.90
60293;DHT22;52402;52.670;6.750;2023-09-30T06:22:20;10.90;99.90
60293;DHT22;52402;52.670;6.750;2023-09-30T06:24:47;10.90;99.90
60293;DHT22;52402;52.670;6.750;2023-09-30T06:27:13;11.00;99.90
60293;DHT22;52402;52.670;6.750;2023-09-30T06:29:40;11.00;99.90
60293;DHT22;52402;52.670;6.750;2023-09-30T06:32:08;11.00;99.90
60293;DHT22;52402;52.670;6.750;2023-09-30T06:34:34;11.00;99.90
60293;DHT22;52402;52.670;6.750;2023-09-30T06:37:00;11.10;99.90
60293;DHT22;52402;52.670;6.750;2023-09-30T06:39:29;11.10;99.90
60293;DHT22;52402;52.670;6.750;2023-09-30T06:41:54;11.10;99.90
60293;DHT22;52402;52.670;6.750;2023-09-30T06:44:20;11.20;99.90
60293;DHT22;52402;52.670;6.750;2023-09-30T06:46:49;11.20;99.90
60293;DHT22;52402;52.670;6.750;2023-09-30T06:49:16;11.20;99.90
60293;DHT22;52402;52.670;6.750;2023-09-30T06:51:42;11.20;99.90
60293;DHT22;52402;52.670;6.750;2023-09-30T06:54:07;11.30;99.90
60293;DHT22;52402;52.670;6.750;2023-09-30T06:56:33;11.30;99.90
60293;DHT22;52402;52.670;6.750;2023-09-30T06:58:59;11.40;99.90
60293;DHT22;52402;52.670;6.750;2023-09-30T07:01:25;11.40;99.90
60293;DHT22;52402;52.670;6.750;2023-09-30T07:03:50;11.50;99.90
60293;DHT22;52402;52.670;6.750;2023-09-30T07:06:26;11.50;99.90
60293;DHT22;52402;52.670;6.750;2023-09-30T07:08:52;11.60;99.90
60293;DHT22;52402;52.670;6.750;2023-09-30T07:11:28;11.60;99.90
60293;DHT22;52402;52.670;6.750;2023-09-30T07:13:55;11.70;99.90
60293;DHT22;52402;52.670;6.750;2023-09-30T07:16:21;11.70;99.90
60293;DHT22;52402;52.670;6.750;2023-09-30T07:18:46;11.80;99.90
60293;DHT22;52402;52.670;6.750;2023-09-30T07:21:12;11.80;99.90
60293;DHT22;52402;52.670;6.750;2023-09-30T07:23:38;11.90;99.90
60293;DHT22;52402;52.670;6.750;2023-09-30T07:26:04;11.90;99.90
60293;DHT22;52402;52.670;6.750;2023-09-30T07:28:29;12.00;99.90
60293;DHT22;52402;52.670;6.750;2023-09-30T07:30:55;12.00;99.90
60293;DHT22;52402;52.670;6.750;2023-09-30T07:33:21;12.10;99.90
60293;DHT22;52402;52.670;6.750;2023-09-30T07:35:47;12.10;99.90
60293;DHT22;52402;52.670;6.750;2023-09-30T07:38:12;12.20;99.90
60293;DHT22;52402;52.670;6.750;2023-09-30T07:40:38;12.30;99.90
60293;DHT22;52402;52.670;6.750;2023-09-30T07:43:04;12.40;99.90
60293;DHT22;52402;52.670;6.750;2023-09-30T07:45:29;12.50;99.90
60293;DHT22;52402;52.670;6.750;2023-09-30T07:47:55;12.60;99.90
60293;DHT22;52402;52.670;6.750;2023-09-30T07:50:21;12.70;99.90
60293;DHT22;52402;52.670;6.750;2023-09-30T07:52:46;12.80;99.90
60293;DHT22;52402;52.670;6.750;2023-09-30T07:55:12;12.90;99.90
60293;DHT22;52402;52.670;6.750;2023-09-30T07:57:39;13.00;99.90
60293;DHT22;52402;52.670;6.750;2023-09-30T08:00:05;13.00;99.90
60293;DHT22;52402;52.670;6.750;2023-09-30T08:02:34;13.20;99.90
60293;DHT22;52402;52.670;6.750;2023-09-30T08:05:00;13.30;99.90
60293;DHT22;52402;52.670;6.750;2023-09-30T08:07:26;13.40;99.90
60293;DHT22;52402;52.670;6.750;2023-09-30T08:09:52;13.50;99.90
60293;DHT22;52402;52.670;6.750;2023-09-30T08:12:18;13.60;99.90
60293;DHT22;52402;52.670;6.750;2023-09-30T08:14:43;13.60;99.90
60293;DHT22;52402;52.670;6.750;2023-09-30T08:17:12;13.60;99.90
60293;DHT22;52402;52.670;6.750;2023-09-30T08:19:37;13.70;99.90
60293;DHT22;52402;52.670;6.750;2023-09-30T08:22:03;13.70;99.90
60293;DHT22;52402;52.670;6.750;2023-09-30T08:24:29;13.80;99.90
60293;DHT22;52402;52.670;6.750;2023-09-30T08:26:55;13.80;99.90
60293;DHT22;52402;52.670;6.750;2023-09-30T08:29:22;13.80;99.90
60293;DHT22;52402;52.670;6.750;2023-09-30T08:31:47;13.90;99.90
60293;DHT22;52402;52.670;6.750;2023-09-30T08:34:16;14.00;99.90
60293;DHT22;52402;52.670;6.750;2023-09-30T08:36:42;14.10;99.90
60293;DHT22;52402;52.670;6.750;2023-09-30T08:39:08;14.10;99.90
60293;DHT22;52402;52.670;6.750;2023-09-30T08:41:36;14.20;99.90
60293;DHT22;52402;52.670;6.750;2023-09-30T08:44:02;14.20;99.90
60293;DHT22;52402;52.670;6.750;2023-09-30T08:46:33;14.30;99.90
60293;DHT22;52402;52.670;6.750;2023-09-30T08:49:03;14.30;99.90
60293;DHT22;52402;52.670;6.750;2023-09-30T08:51:30;14.30;99.90
60293;DHT22;52402;52.670;6.750;2023-09-30T08:53:57;14.30;99.90
60293;DHT22;52402;52.670;6.750;2023-09-30T08:56:26;14.30;99.90
60293;DHT22;52402;52.670;6.750;2023-09-30T08:58:56;14.30;99.90
60293;DHT22;52402;52.670;6.750;2023-09-30T09:01:23;14.30;99.90
60293;DHT22;52402;52.670;6.750;2023-09-30T09:03:49;14.40;99.90
60293;DHT22;52402;52.670;6.750;2023-09-30T09:06:20;14.40;99.90
60293;DHT22;52402;52.670;6.750;2023-09-30T09:08:46;14.50;99.90
60293;DHT22;52402;52.670;6.750;2023-09-30T09:11:12;14.60;99.90
60293;DHT22;52402;52.670;6.750;2023-09-30T09:16:11;14.70;99.90
60293;DHT22;52402;52.670;6.750;2023-09-30T09:18:37;14.80;99.90
60293;DHT22;52402;52.670;6.750;2023-09-30T09:21:13;14.90;99.90
60293;DHT22;52402;52.670;6.750;2023-09-30T09:23:40;15.00;99.90
60293;DHT22;52402;52.670;6.750;2023-09-30T09:26:06;15.10;99.90
60293;DHT22;52402;52.670;6.750;2023-09-30T09:28:37;15.20;99.90
60293;DHT22;52402;52.670;6.750;2023-09-30T09:31:19;15.30;99.90
60293;DHT22;52402;52.670;6.750;2023-09-30T09:33:45;15.40;99.90
60293;DHT22;52402;52.670;6.750;2023-09-30T09:36:11;15.50;99.90
60293;DHT22;52402;52.670;6.750;2023-09-30T09:38:50;15.60;99.90
60293;DHT22;52402;52.670;6.750;2023-09-30T09:41:19;15.70;99.90
60293;DHT22;52402;52.670;6.750;2023-09-30T09:43:48;15.70;99.90
60293;DHT22;52402;52.670;6.750;2023-09-30T09:46:16;15.70;99.90
60293;DHT22;52402;52.670;6.750;2023-09-30T09:48:44;15.70;99.90
60293;DHT22;52402;52.670;6.750;2023-09-30T09:51:11;15.80;99.90
60293;DHT22;52402;52.670;6.750;2023-09-30T09:53:39;15.80;99.90
60293;DHT22;52402;52.670;6.750;2023-09-30T09:56:08;15.90;99.90
60293;DHT22;52402;52.670;6.750;2023-09-30T09:58:36;15.90;99.90
60293;DHT22;52402;52.670;6.750;2023-09-30T10:01:05;15.90;99.90
60293;DHT22;52402;52.670;6.750;2023-09-30T10:03:32;16.00;99.90
60293;DHT22;52402;52.670;6.750;2023-09-30T10:05:58;16.00;99.90
60293;DHT22;52402;52.670;6.750;2023-09-30T10:08:35;16.10;99.90
60293;DHT22;52402;52.670;6.750;2023-09-30T10:11:02;16.20;99.90
60293;DHT22;52402;52.670;6.750;2023-09-30T10:19:22;16.30;99.90
60293;DHT22;52402;52.670;6.750;2023-09-30T10:24:41;16.50;99.90
60293;DHT22;52402;52.670;6.750;2023-09-30T10:29:48;16.70;99.90
60293;DHT22;52402;52.670;6.750;2023-09-30T10:32:18;16.80;99.90
60293;DHT22;52402;52.670;6.750;2023-09-30T10:34:50;16.80;99.90
60293;DHT22;52402;52.670;6.750;2023-09-30T10:37:22;16.90;99.90
60293;DHT22;52402;52.670;6.750;2023-09-30T10:39:58;17.00;99.90
60293;DHT22;52402;52.670;6.750;2023-09-30T10:51:10;17.40;99.90
60293;DHT22;52402;52.670;6.750;2023-09-30T10:53:55;17.50;99.90
60293;DHT22;52402;52.670;6.750;2023-09-30T10:56:32;17.60;99.90
60293;DHT22;52402;52.670;6.750;2023-09-30T10:58:58;17.70;99.90
60293;DHT22;52402;52.670;6.750;2023-09-30T11:01:33;17.60;99.90
60293;DHT22;52402;52.670;6.750;2023-09-30T11:04:01;17.70;99.90
60293;DHT22;52402;52.670;6.750;2023-09-30T11:06:31;17.70;99.90
60293;DHT22;52402;52.670;6.750;2023-09-30T11:08:59;17.70;99.90
60293;DHT22;52402;52.670;6.750;2023-09-30T11:14:29;17.90;99.90
60293;DHT22;52402;52.670;6.750;2023-09-30T11:16:56;18.10;99.90
60293;DHT22;52402;52.670;6.750;2023-09-30T11:19:23;18.20;99.90
60293;DHT22;52402;52.670;6.750;2023-09-30T11:21:51;18.30;99.90
60293;DHT22;52402;52.670;6.750;2023-09-30T11:24:17;18.30;99.90
60293;DHT22;52402;52.670;6.750;2023-09-30T11:26:47;18.20;99.90
60293;DHT22;52402;52.670;6.750;2023-09-30T11:29:15;18.20;99.90
60293;DHT22;52402;52.670;6.750;2023-09-30T11:31:46;18.20;99.90
60293;DHT22;52402;52.670;6.750;2023-09-30T11:34:14;18.10;99.90
60293;DHT22;52402;52.670;6.750;2023-09-30T11:36:51;18.10;99.90
60293;DHT22;52402;52.670;6.750;2023-09-30T11:39:23;18.00;99.90
60293;DHT22;52402;52.670;6.750;2023-09-30T11:41:50;17.90;99.90
60293;DHT22;52402;52.670;6.750;2023-09-30T11:44:16;17.80;99.90
60293;DHT22;52402;52.670;6.750;2023-09-30T11:47:01;17.80;99.90
60293;DHT22;52402;52.670;6.750;2023-09-30T11:49:52;17.80;99.90
60293;DHT22;52402;52.670;6.750;2023-09-30T11:52:26;17.80;99.90
60293;DHT22;52402;52.670;6.750;2023-09-30T11:54:52;17.90;99.90
60293;DHT22;52402;52.670;6.750;2023-09-30T11:57:19;17.80;99.90
60293;DHT22;52402;52.670;6.750;2023-09-30T11:59:45;17.80;99.90
60293;DHT22;52402;52.670;6.750;2023-09-30T12:02:12;17.80;99.90
60293;DHT22;52402;52.670;6.750;2023-09-30T12:04:38;17.90;99.90
60293;DHT22;52402;52.670;6.750;2023-09-30T12:07:04;18.10;99.90
60293;DHT22;52402;52.670;6.750;2023-09-30T12:09:32;18.30;99.90
60293;DHT22;52402;52.670;6.750;2023-09-30T12:12:00;18.50;99.90
60293;DHT22;52402;52.670;6.750;2023-09-30T12:14:26;18.60;99.90
60293;DHT22;52402;52.670;6.750;2023-09-30T12:16:54;18.70;99.90
60293;DHT22;52402;52.670;6.750;2023-09-30T12:19:20;18.80;99.90
60293;DHT22;52402;52.670;6.750;2023-09-30T12:21:47;18.90;99.90
60293;DHT22;52402;52.670;6.750;2023-09-30T12:24:17;19.10;99.90
60293;DHT22;52402;52.670;6.750;2023-09-30T12:26:48;19.20;99.90
60293;DHT22;52402;52.670;6.750;2023-09-30T12:29:22;19.30;99.90
60293;DHT22;52402;52.670;6.750;2023-09-30T12:31:50;19.50;99.90
60293;DHT22;52402;52.670;6.750;2023-09-30T12:34:16;19.70;99.90
60293;DHT22;52402;52.670;6.750;2023-09-30T12:36:42;19.90;99.90
60293;DHT22;52402;52.670;6.750;2023-09-30T12:39:09;20.00;99.90
60293;DHT22;52402;52.670;6.750;2023-09-30T12:41:42;20.30;99.90
60293;DHT22;52402;52.670;6.750;2023-09-30T12:44:10;20.50;99.90
60293;DHT22;52402;52.670;6.750;2023-09-30T12:46:36;20.60;99.90
60293;DHT22;52402;52.670;6.750;2023-09-30T12:49:06;20.70;99.90
60293;DHT22;52402;52.670;6.750;2023-09-30T12:51:32;20.60;99.90
60293;DHT22;52402;52.670;6.750;2023-09-30T12:53:59;21.00;99.90
60293;DHT22;52402;52.670;6.750;2023-09-30T12:56:25;21.20;99.90
60293;DHT22;52402;52.670;6.750;2023-09-30T12:58:51;21.40;99.90
60293;DHT22;52402;52.670;6.750;2023-09-30T13:01:16;21.50;99.90
60293;DHT22;52402;52.670;6.750;2023-09-30T13:03:44;21.60;99.90
60293;DHT22;52402;52.670;6.750;2023-09-30T13:06:10;21.60;99.90
60293;DHT22;52402;52.670;6.750;2023-09-30T13:08:35;21.50;99.90
60293;DHT22;52402;52.670;6.750;2023-09-30T13:11:02;21.60;99.90
60293;DHT22;52402;52.670;6.750;2023-09-30T13:13:29;21.60;99.90
60293;DHT22;52402;52.670;6.750;2023-09-30T13:15:57;21.70;99.90
60293;DHT22;52402;52.670;6.750;2023-09-30T13:18:23;21.80;99.90
60293;DHT22;52402;52.670;6.750;2023-09-30T13:20:51;21.60;99.90
60293;DHT22;52402;52.670;6.750;2023-09-30T13:23:20;21.60;99.90
60293;DHT22;52402;52.670;6.750;2023-09-30T13:25:46;21.60;99.90
60293;DHT22;52402;52.670;6.750;2023-09-30T13:28:11;21.60;99.90
60293;DHT22;52402;52.670;6.750;2023-09-30T13:30:37;21.50;99.90
60293;DHT22;52402;52.670;6.750;2023-09-30T13:33:03;21.40;99.90
60293;DHT22;52402;52.670;6.750;2023-09-30T13:35:29;21.30;99.90
60293;DHT22;52402;52.670;6.750;2023-09-30T13:37:54;21.10;99.90
60293;DHT22;52402;52.670;6.750;2023-09-30T13:40:20;21.10;99.90
60293;DHT22;52402;52.670;6.750;2023-09-30T13:42:45;20.90;99.90
60293;DHT22;52402;52.670;6.750;2023-09-30T13:45:12;21.00;99.90
60293;DHT22;52402;52.670;6.750;2023-09-30T13:47:38;21.00;99.90
60293;DHT22;52402;52.670;6.750;2023-09-30T13:50:04;21.00;99.90
60293;DHT22;52402;52.670;6.750;2023-09-30T13:52:33;21.10;99.90
60293;DHT22;52402;52.670;6.750;2023-09-30T13:54:59;21.30;99.90
60293;DHT22;52402;52.670;6.750;2023-09-30T13:57:25;21.20;99.90
60293;DHT22;52402;52.670;6.750;2023-09-30T13:59:50;21.20;99.90
60293;DHT22;52402;52.670;6.750;2023-09-30T14:02:16;21.20;99.90
60293;DHT22;52402;52.670;6.750;2023-09-30T14:04:42;21.30;99.90
60293;DHT22;52402;52.670;6.750;2023-09-30T14:07:07;21.30;99.90
60293;DHT22;52402;52.670;6.750;2023-09-30T14:09:33;21.30;99.90
60293;DHT22;52402;52.670;6.750;2023-09-30T14:11:59;21.30;99.90
60293;DHT22;52402;52.670;6.750;2023-09-30T14:14:25;21.30;99.90
60293;DHT22;52402;52.670;6.750;2023-09-30T14:16:51;21.30;99.90
60293;DHT22;52402;52.670;6.750;2023-09-30T14:19:17;21.40;99.90
60293;DHT22;52402;52.670;6.750;2023-09-30T14:21:42;21.20;99.90
60293;DHT22;52402;52.670;6.750;2023-09-30T14:24:08;20.90;99.90
60293;DHT22;52402;52.670;6.750;2023-09-30T14:26:34;20.50;99.90
60293;DHT22;52402;52.670;6.750;2023-09-30T14:29:00;20.30;99.90
60293;DHT22;52402;52.670;6.750;2023-09-30T14:31:26;20.20;99.90
60293;DHT22;52402;52.670;6.750;2023-09-30T14:33:51;20.00;99.90
60293;DHT22;52402;52.670;6.750;2023-09-30T14:36:18;19.80;99.90
60293;DHT22;52402;52.670;6.750;2023-09-30T14:38:47;19.60;99.90
60293;DHT22;52402;52.670;6.750;2023-09-30T14:41:13;19.50;99.90
60293;DHT22;52402;52.670;6.750;2023-09-30T14:43:39;19.40;99.90
60293;DHT22;52402;52.670;6.750;2023-09-30T14:46:04;19.20;99.90
60293;DHT22;52402;52.670;6.750;2023-09-30T14:48:30;19.10;99.90
60293;DHT22;52402;52.670;6.750;2023-09-30T14:50:56;19.00;99.90
60293;DHT22;52402;52.670;6.750;2023-09-30T14:53:23;19.00;99.90
60293;DHT22;52402;52.670;6.750;2023-09-30T14:55:50;19.00;99.90
60293;DHT22;52402;52.670;6.750;2023-09-30T14:58:16;18.90;99.90
60293;DHT22;52402;52.670;6.750;2023-09-30T15:00:42;18.80;99.90
60293;DHT22;52402;52.670;6.750;2023-09-30T15:03:08;18.80;99.90
60293;DHT22;52402;52.670;6.750;2023-09-30T15:05:33;18.70;99.90
60293;DHT22;52402;52.670;6.750;2023-09-30T15:08:00;18.70;99.90
60293;DHT22;52402;52.670;6.750;2023-09-30T15:10:28;18.60;99.90
60293;DHT22;52402;52.670;6.750;2023-09-30T15:12:55;18.50;99.90
60293;DHT22;52402;52.670;6.750;2023-09-30T15:15:20;18.50;99.90
60293;DHT22;52402;52.670;6.750;2023-09-30T15:17:46;18.50;99.90
60293;DHT22;52402;52.670;6.750;2023-09-30T15:20:12;18.40;99.90
60293;DHT22;52402;52.670;6.750;2023-09-30T15:22:38;18.40;99.90
60293;DHT22;52402;52.670;6.750;2023-09-30T15:25:04;18.30;99.90
60293;DHT22;52402;52.670;6.750;2023-09-30T15:27:30;18.30;99.90
60293;DHT22;52402;52.670;6.750;2023-09-30T15:30:00;18.20;99.90
60293;DHT22;52402;52.670;6.750;2023-09-30T15:32:25;18.20;99.90
60293;DHT22;52402;52.670;6.750;2023-09-30T15:34:51;18.20;99.90
60293;DHT22;52402;52.670;6.750;2023-09-30T15:37:17;18.10;99.90
60293;DHT22;52402;52.670;6.750;2023-09-30T15:39:43;18.10;99.90
60293;DHT22;52402;52.670;6.750;2023-09-30T15:42:09;18.10;99.90
60293;DHT22;52402;52.670;6.750;2023-09-30T15:44:36;18.00;99.90
60293;DHT22;52402;52.670;6.750;2023-09-30T15:47:05;18.00;99.90
60293;DHT22;52402;52.670;6.750;2023-09-30T15:49:31;18.00;99.90
60293;DHT22;52402;52.670;6.750;2023-09-30T15:51:57;17.90;99.90
60293;DHT22;52402;52.670;6.750;2023-09-30T15:54:22;17.80;99.90